Аэропорт: Орск. Орск

ICAO: UWOR

METAR:
2019-07-24 01:00:00
UWOR 240100Z 29004MPS CAVOK 14/10 Q1013 R25/CLRD65 NOSIG RMK QFE736/0982
METAR:
2019-07-23 22:49:00
TAF UWOR 232249Z 2400/2409 30005G11MPS 9999 SCT030 TEMPO 2400/2406 34005G11MPS